Time;durP1;ratioP1;P1;durP2;ratioP2;P2;SDS_P1;SDS_P2;PMS_P1;PMS_P2;Temp;Humidity;BMP_temperature;BMP_pressure;BME280_temperature;BME280_humidity;BME280_pressure;Samples;Min_cycle;Max_cycle;Signal;HPM_P1;HPM_P2
2021/01/26 00:05:59;;;;;;;22.70;18.25;;;;;;;;;;4524643;28;20582;-50
2021/01/26 00:08:25;;;;;;;24.75;18.70;;;;;;;;;;4206237;34;20094;-48
2021/01/26 00:10:51;;;;;;;28.67;18.08;;;;;;;;;;4212710;34;20193;-49
2021/01/26 00:13:17;;;;;;;24.85;18.90;;;;;;;;;;4192864;34;20129;-47
2021/01/26 00:15:43;;;;;;;26.08;18.90;;;;;;;;;;4205740;34;20539;-50
2021/01/26 00:18:09;;;;;;;27.08;18.52;;;;;;;;;;4205709;34;20134;-51
2021/01/26 00:20:35;;;;;;;29.02;19.50;;;;;;;;;;4205698;34;20200;-48
2021/01/26 00:23:01;;;;;;;31.35;18.48;;;;;;;;;;4205956;34;20106;-48
2021/01/26 00:25:29;;;;;;;32.38;19.58;;;;;;;;;;4205649;34;20128;-47
2021/01/26 00:27:55;;;;;;;27.50;18.98;;;;;;;;;;4205961;34;20105;-48
2021/01/26 00:30:26;;;;;;;29.90;19.02;;;;;;;;;;4205791;34;20106;-48
2021/01/26 00:32:53;;;;;;;26.25;18.37;;;;;;;;;;4193056;34;20133;-51
2021/01/26 00:35:20;;;;;;;27.20;19.23;;;;;;;;;;4205718;34;20510;-48
2021/01/26 00:37:46;;;;;;;29.40;19.48;;;;;;;;;;4205791;34;20266;-48
2021/01/26 00:40:12;;;;;;;27.98;19.87;;;;;;;;;;4205659;34;20105;-47
2021/01/26 00:42:38;;;;;;;26.30;19.62;;;;;;;;;;4205751;34;20113;-48
2021/01/26 00:45:06;;;;;;;29.58;19.75;;;;;;;;;;4205454;34;20124;-48
2021/01/26 00:47:32;;;;;;;31.65;18.87;;;;;;;;;;4205694;34;20110;-49
2021/01/26 00:49:57;;;;;;;32.17;19.05;;;;;;;;;;4205324;34;20473;-47
2021/01/26 00:52:23;;;;;;;34.47;19.48;;;;;;;;;;4205660;34;20216;-48
2021/01/26 00:54:49;;;;;;;30.15;19.83;;;;;;;;;;4205342;34;20210;-49
2021/01/26 00:57:21;;;;;;;29.17;19.05;;;;;;;;;;4205626;34;20121;-48
2021/01/26 00:59:47;;;;;;;33.70;20.70;;;;;;;;;;4205256;34;20114;-48
2021/01/26 01:02:14;;;;;;;27.77;20.00;;;;;;;;;;4205616;34;20097;-48
2021/01/26 01:04:40;;;;;;;26.87;19.27;;;;;;;;;;4205094;34;20120;-50
2021/01/26 01:07:06;;;;;;;30.37;20.27;;;;;;;;;;4204618;34;20481;-48
2021/01/26 01:09:32;;;;;;;31.80;20.60;;;;;;;;;;4204599;34;20111;-49
2021/01/26 01:11:58;;;;;;;33.17;20.60;;;;;;;;;;4204593;34;20195;-52
2021/01/26 01:14:24;;;;;;;32.35;20.23;;;;;;;;;;4204641;34;20282;-47
2021/01/26 01:16:50;;;;;;;28.12;20.25;;;;;;;;;;4204732;34;20525;-49
2021/01/26 01:19:16;;;;;;;36.08;21.55;;;;;;;;;;4204196;34;20585;-48
2021/01/26 01:21:41;;;;;;;35.83;21.00;;;;;;;;;;4204599;34;20117;-53
2021/01/26 01:24:09;;;;;;;36.67;21.80;;;;;;;;;;4204905;34;20105;-51
2021/01/26 01:26:35;;;;;;;39.65;22.70;;;;;;;;;;4204503;34;20129;-51
2021/01/26 01:29:02;;;;;;;37.47;20.10;;;;;;;;;;4204518;34;20473;-47
2021/01/26 01:31:28;;;;;;;30.77;22.48;;;;;;;;;;4204268;34;20136;-47
2021/01/26 01:33:54;;;;;;;42.47;22.50;;;;;;;;;;4204741;34;20470;-47
2021/01/26 01:36:20;;;;;;;35.53;22.90;;;;;;;;;;4204528;34;20125;-47
2021/01/26 01:38:46;;;;;;;35.90;23.00;;;;;;;;;;4204387;34;20128;-48
2021/01/26 01:41:12;;;;;;;34.25;22.98;;;;;;;;;;4204452;34;20137;-49
2021/01/26 01:43:37;;;;;;;42.88;23.02;;;;;;;;;;4204434;34;20596;-48
2021/01/26 01:46:05;;;;;;;36.47;23.23;;;;;;;;;;4204256;34;20110;-48
2021/01/26 01:48:33;;;;;;;35.55;22.55;;;;;;;;;;4180449;34;20208;-48
2021/01/26 01:51:03;;;;;;;36.85;22.62;;;;;;;;;;4180125;34;20117;-50
2021/01/26 01:53:41;;;;;;;34.78;23.12;;;;;;;;;;4180178;34;20525;-52
2021/01/26 01:56:28;;;;;;;46.10;24.17;;;;;;;;;;4191796;34;20122;-49
2021/01/26 01:59:07;;;;;;;36.72;23.95;;;;;;;;;;4193433;34;20113;-51
2021/01/26 02:01:33;;;;;;;41.63;24.98;;;;;;;;;;4180244;34;20141;-50
2021/01/26 02:04:01;;;;;;;43.08;25.80;;;;;;;;;;4191661;34;20564;-51
2021/01/26 02:06:31;;;;;;;31.55;23.23;;;;;;;;;;4180300;34;20178;-52
2021/01/26 02:09:02;;;;;;;38.28;24.48;;;;;;;;;;4204849;34;20189;-48
2021/01/26 02:11:28;;;;;;;38.05;24.50;;;;;;;;;;4204540;34;20109;-49
2021/01/26 02:13:54;;;;;;;41.05;24.63;;;;;;;;;;4204959;34;20121;-50
2021/01/26 02:16:35;;;;;;;38.20;25.55;;;;;;;;;;4204816;34;20117;-52
2021/01/26 02:19:32;;;;;;;36.67;23.45;;;;;;;;;;4181052;34;20104;-48
2021/01/26 02:22:26;;;;;;;44.75;25.08;;;;;;;;;;4204605;34;20227;-49
2021/01/26 02:25:24;;;;;;;41.60;24.08;;;;;;;;;;4193848;34;20132;-50
2021/01/26 02:28:27;;;;;;;38.10;23.00;;;;;;;;;;4204562;34;20110;-48
2021/01/26 02:31:08;;;;;;;38.33;24.10;;;;;;;;;;4203684;34;20548;-51
2021/01/26 02:34:14;;;;;;;39.63;22.92;;;;;;;;;;4204557;34;20087;-48
2021/01/26 02:37:02;;;;;;;36.17;21.98;;;;;;;;;;4193532;34;20185;-56
2021/01/26 02:40:05;;;;;;;34.83;21.45;;;;;;;;;;4204406;34;20101;-51
2021/01/26 02:43:14;;;;;;;39.95;22.10;;;;;;;;;;4204432;34;20198;-54
2021/01/26 02:46:11;;;;;;;32.92;20.92;;;;;;;;;;4181910;34;20121;-56
2021/01/26 02:49:05;;;;;;;35.25;21.48;;;;;;;;;;4174198;34;20094;-48
2021/01/26 02:51:42;;;;;;;35.58;21.80;;;;;;;;;;4192466;34;20137;-54
2021/01/26 02:54:48;;;;;;;30.40;20.37;;;;;;;;;;4191820;34;20608;-48
2021/01/26 02:57:22;;;;;;;28.77;20.40;;;;;;;;;;4174306;34;20126;-50
2021/01/26 03:00:07;;;;;;;29.37;19.60;;;;;;;;;;4185819;34;20125;-52
2021/01/26 03:02:52;;;;;;;28.05;17.90;;;;;;;;;;4191029;34;20129;-50
2021/01/26 03:05:25;;;;;;;29.98;17.58;;;;;;;;;;4192036;34;20174;-47
2021/01/26 03:08:06;;;;;;;24.85;16.73;;;;;;;;;;4180148;34;20078;-48
2021/01/26 03:10:34;;;;;;;27.58;16.42;;;;;;;;;;4180268;34;20136;-57
2021/01/26 03:13:01;;;;;;;26.73;17.00;;;;;;;;;;4180081;34;20182;-52
2021/01/26 03:15:31;;;;;;;23.60;17.67;;;;;;;;;;4191079;34;20114;-57
2021/01/26 03:17:59;;;;;;;27.37;17.27;;;;;;;;;;4179791;34;20177;-53
2021/01/26 03:20:30;;;;;;;24.52;17.55;;;;;;;;;;4177170;34;20133;-53
2021/01/26 03:22:57;;;;;;;23.25;15.52;;;;;;;;;;4177709;34;20133;-57
2021/01/26 03:25:24;;;;;;;26.10;16.75;;;;;;;;;;4169701;34;20098;-50
2021/01/26 03:27:52;;;;;;;21.77;16.20;;;;;;;;;;4191034;34;20649;-54
2021/01/26 03:30:20;;;;;;;21.42;11.02;;;;;;;;;;4188467;34;20098;-53
2021/01/26 03:32:48;;;;;;;21.37;12.10;;;;;;;;;;4177558;34;20113;-50
2021/01/26 03:35:15;;;;;;;18.50;10.35;;;;;;;;;;4182354;34;20101;-47
2021/01/26 03:37:42;;;;;;;25.23;10.25;;;;;;;;;;4217665;34;20110;-60
2021/01/26 03:40:08;;;;;;;22.05;11.75;;;;;;;;;;4192770;34;20105;-56
2021/01/26 03:42:34;;;;;;;18.15;10.27;;;;;;;;;;4219135;34;20107;-56
2021/01/26 03:45:00;;;;;;;17.40;10.00;;;;;;;;;;4195225;34;20188;-54
2021/01/26 03:47:27;;;;;;;19.80;8.18;;;;;;;;;;4219890;34;20125;-53
2021/01/26 03:50:05;;;;;;;13.70;9.63;;;;;;;;;;4219537;34;20125;-56
2021/01/26 03:52:53;;;;;;;19.40;10.68;;;;;;;;;;4199568;34;20133;-53
2021/01/26 03:55:22;;;;;;;20.52;10.68;;;;;;;;;;4186248;34;20097;-51
2021/01/26 03:58:00;;;;;;;26.45;12.37;;;;;;;;;;4207128;34;20192;-57
2021/01/26 04:00:35;;;;;;;24.73;11.77;;;;;;;;;;4219504;34;20122;-52
2021/01/26 04:03:35;;;;;;;19.50;10.23;;;;;;;;;;4204766;34;20108;-50
2021/01/26 04:06:39;;;;;;;23.02;10.02;;;;;;;;;;4212806;34;20129;-52
2021/01/26 04:09:10;;;;;;;16.42;8.57;;;;;;;;;;4219033;34;20197;-50
2021/01/26 04:11:46;;;;;;;18.80;10.63;;;;;;;;;;4194755;34;20101;-51
2021/01/26 04:14:22;;;;;;;27.02;11.75;;;;;;;;;;4219572;34;20121;-51
2021/01/26 04:17:13;;;;;;;21.02;9.60;;;;;;;;;;4195098;34;20547;-51
2021/01/26 04:19:47;;;;;;;25.77;10.90;;;;;;;;;;4201111;34;20134;-50
2021/01/26 04:22:13;;;;;;;16.90;10.57;;;;;;;;;;4190510;34;20141;-52
2021/01/26 04:24:39;;;;;;;25.83;10.70;;;;;;;;;;4191699;34;20149;-50
2021/01/26 04:27:09;;;;;;;20.58;11.52;;;;;;;;;;4192398;34;20459;-54
2021/01/26 04:29:35;;;;;;;25.45;9.90;;;;;;;;;;4192746;34;20121;-53
2021/01/26 04:32:00;;;;;;;20.95;10.85;;;;;;;;;;4204968;34;20229;-52
2021/01/26 04:34:26;;;;;;;28.10;12.15;;;;;;;;;;4205263;34;20129;-53
2021/01/26 04:36:52;;;;;;;20.10;11.25;;;;;;;;;;4205175;34;20118;-50
2021/01/26 04:39:18;;;;;;;27.35;9.63;;;;;;;;;;4205290;34;20187;-49
2021/01/26 04:41:52;;;;;;;25.23;12.50;;;;;;;;;;4204856;34;20097;-53
2021/01/26 04:44:47;;;;;;;25.48;10.90;;;;;;;;;;4192451;34;20090;-52
2021/01/26 04:47:21;;;;;;;19.90;11.00;;;;;;;;;;4175493;34;20189;-53
2021/01/26 04:49:51;;;;;;;22.58;10.10;;;;;;;;;;4180995;34;20481;-58
2021/01/26 04:52:29;;;;;;;19.48;10.75;;;;;;;;;;4191654;34;20540;-49
2021/01/26 04:54:58;;;;;;;19.58;11.35;;;;;;;;;;4192462;34;20193;-50
2021/01/26 04:57:28;;;;;;;16.50;9.77;;;;;;;;;;4205432;34;20478;-50
2021/01/26 05:00:20;;;;;;;15.90;10.80;;;;;;;;;;4192365;34;20133;-48
2021/01/26 05:03:24;;;;;;;18.50;10.07;;;;;;;;;;4193466;34;20424;-50
2021/01/26 05:05:51;;;;;;;15.77;7.78;;;;;;;;;;4204905;34;20082;-52
2021/01/26 05:08:29;;;;;;;20.15;10.85;;;;;;;;;;4205562;34;20121;-51
2021/01/26 05:11:15;;;;;;;18.77;9.13;;;;;;;;;;4202184;34;20157;-53
2021/01/26 05:13:55;;;;;;;22.15;8.50;;;;;;;;;;4178154;34;20118;-52
2021/01/26 05:16:24;;;;;;;18.05;9.98;;;;;;;;;;4200407;34;20121;-50
2021/01/26 05:19:14;;;;;;;18.50;10.93;;;;;;;;;;4182445;34;20515;-52
2021/01/26 05:21:47;;;;;;;22.02;9.77;;;;;;;;;;4186225;34;20182;-54
2021/01/26 05:24:12;;;;;;;14.40;10.15;;;;;;;;;;4205059;34;20603;-53
2021/01/26 05:26:38;;;;;;;19.02;11.32;;;;;;;;;;4198950;34;20193;-52
2021/01/26 05:29:08;;;;;;;18.02;9.63;;;;;;;;;;4178632;34;20522;-51
2021/01/26 05:31:39;;;;;;;17.95;9.43;;;;;;;;;;4212848;34;20137;-54
2021/01/26 05:34:09;;;;;;;15.38;9.07;;;;;;;;;;4206506;34;20204;-49
2021/01/26 05:36:35;;;;;;;16.05;9.48;;;;;;;;;;4206059;34;20145;-50
2021/01/26 05:39:03;;;;;;;15.70;8.80;;;;;;;;;;4218923;34;20119;-49
2021/01/26 05:41:29;;;;;;;15.02;9.27;;;;;;;;;;4218574;34;20101;-49
2021/01/26 05:43:55;;;;;;;15.30;8.98;;;;;;;;;;4184683;34;20190;-56
2021/01/26 05:46:32;;;;;;;15.80;10.48;;;;;;;;;;4187695;34;20125;-49
2021/01/26 05:48:58;;;;;;;17.10;8.80;;;;;;;;;;4204799;34;20109;-50
2021/01/26 05:51:25;;;;;;;14.23;9.30;;;;;;;;;;4204541;34;20506;-50
2021/01/26 05:54:23;;;;;;;15.77;9.02;;;;;;;;;;4203803;34;20113;-51
2021/01/26 05:56:52;;;;;;;16.50;8.85;;;;;;;;;;4180860;34;20094;-54
2021/01/26 05:59:20;;;;;;;17.00;8.95;;;;;;;;;;4183947;34;20129;-55
2021/01/26 06:01:46;;;;;;;17.23;10.38;;;;;;;;;;4198798;34;20221;-49
2021/01/26 06:04:16;;;;;;;19.90;9.88;;;;;;;;;;4203208;34;20494;-54
2021/01/26 06:06:49;;;;;;;16.40;8.80;;;;;;;;;;4202745;34;20101;-55
2021/01/26 06:09:37;;;;;;;15.32;9.02;;;;;;;;;;4203681;34;20117;-54
2021/01/26 06:12:23;;;;;;;11.95;8.35;;;;;;;;;;4202921;34;20451;-52
2021/01/26 06:14:55;;;;;;;21.33;9.70;;;;;;;;;;4204040;34;20134;-50
2021/01/26 06:17:29;;;;;;;14.45;9.27;;;;;;;;;;4204025;34;20118;-51
2021/01/26 06:20:20;;;;;;;15.60;8.90;;;;;;;;;;4204238;34;20136;-52
2021/01/26 06:22:47;;;;;;;17.77;7.80;;;;;;;;;;4204046;34;20214;-50
2021/01/26 06:25:26;;;;;;;15.15;7.87;;;;;;;;;;4203922;34;20177;-50
2021/01/26 06:27:59;;;;;;;13.85;7.43;;;;;;;;;;4203408;34;20231;-52
2021/01/26 06:31:03;;;;;;;13.65;7.90;;;;;;;;;;4191876;34;20201;-54
2021/01/26 06:33:33;;;;;;;11.32;7.37;;;;;;;;;;4204178;34;20148;-55
2021/01/26 06:36:08;;;;;;;13.80;7.68;;;;;;;;;;4191226;34;20129;-56
2021/01/26 06:39:00;;;;;;;14.52;7.57;;;;;;;;;;4192116;34;20106;-53
2021/01/26 06:41:44;;;;;;;11.25;7.82;;;;;;;;;;4203895;34;20116;-53
2021/01/26 06:44:27;;;;;;;17.48;9.27;;;;;;;;;;4203910;34;20101;-51
2021/01/26 06:47:20;;;;;;;15.00;9.50;;;;;;;;;;4202190;34;20193;-48
2021/01/26 06:49:56;;;;;;;14.93;8.93;;;;;;;;;;4217462;34;20176;-49
2021/01/26 06:52:34;;;;;;;16.65;8.65;;;;;;;;;;4198914;34;20125;-50
2021/01/26 06:55:08;;;;;;;15.38;7.80;;;;;;;;;;4205567;34;20089;-47
2021/01/26 06:57:59;;;;;;;15.63;9.75;;;;;;;;;;4217971;34;20126;-48
2021/01/26 07:01:02;;;;;;;16.85;8.63;;;;;;;;;;4217852;34;20125;-51
2021/01/26 07:03:59;;;;;;;19.55;10.18;;;;;;;;;;4214191;34;20122;-52
2021/01/26 07:06:51;;;;;;;15.73;9.88;;;;;;;;;;4182479;34;20177;-48
2021/01/26 07:09:39;;;;;;;16.48;9.00;;;;;;;;;;4198352;34;20112;-49
2021/01/26 07:12:16;;;;;;;19.10;8.68;;;;;;;;;;4200630;34;20233;-48
2021/01/26 07:14:45;;;;;;;15.98;9.35;;;;;;;;;;4203409;34;20182;-50
2021/01/26 07:17:11;;;;;;;16.92;9.73;;;;;;;;;;4191027;34;20322;-49
2021/01/26 07:19:53;;;;;;;20.95;9.68;;;;;;;;;;4179540;34;20098;-50
2021/01/26 07:22:37;;;;;;;16.80;9.40;;;;;;;;;;4169217;34;20130;-48
2021/01/26 07:25:23;;;;;;;23.67;10.07;;;;;;;;;;4181802;34;20206;-50
2021/01/26 07:28:02;;;;;;;18.73;10.60;;;;;;;;;;4206239;34;20176;-51
2021/01/26 07:30:34;;;;;;;12.68;7.65;;;;;;;;;;4192737;34;20133;-51
2021/01/26 07:33:21;;;;;;;15.20;8.75;;;;;;;;;;4182087;34;20118;-49
2021/01/26 07:35:52;;;;;;;16.62;8.30;;;;;;;;;;4192572;34;20114;-51
2021/01/26 07:38:34;;;;;;;13.07;8.88;;;;;;;;;;4181906;34;20086;-49
2021/01/26 07:41:05;;;;;;;14.38;7.70;;;;;;;;;;4178554;34;20416;-53
2021/01/26 07:43:43;;;;;;;13.60;8.88;;;;;;;;;;4179218;34;20130;-52
2021/01/26 07:46:31;;;;;;;11.27;7.93;;;;;;;;;;4200212;34;20112;-55
2021/01/26 07:49:08;;;;;;;14.68;8.30;;;;;;;;;;4205253;34;20113;-54
2021/01/26 07:51:39;;;;;;;13.10;7.68;;;;;;;;;;4191090;34;20112;-57
2021/01/26 07:54:33;;;;;;;12.10;8.40;;;;;;;;;;4190819;34;20106;-53
2021/01/26 07:57:00;;;;;;;12.27;7.72;;;;;;;;;;4203834;34;20120;-54
2021/01/26 07:59:31;;;;;;;12.02;7.93;;;;;;;;;;4179653;34;20245;-52
2021/01/26 08:01:59;;;;;;;15.05;7.87;;;;;;;;;;4192298;34;20132;-52
2021/01/26 08:04:27;;;;;;;15.20;10.05;;;;;;;;;;4204573;34;20157;-50
2021/01/26 08:06:57;;;;;;;11.30;7.40;;;;;;;;;;4205246;34;20110;-53
2021/01/26 08:09:44;;;;;;;12.75;7.22;;;;;;;;;;4191556;34;20137;-53
2021/01/26 08:12:12;;;;;;;9.80;6.95;;;;;;;;;;4192080;34;20093;-56
2021/01/26 08:14:40;;;;;;;11.32;8.00;;;;;;;;;;4202328;34;20106;-51
2021/01/26 08:17:09;;;;;;;10.70;7.03;;;;;;;;;;4205221;34;20137;-52
2021/01/26 08:19:37;;;;;;;11.98;7.45;;;;;;;;;;4191546;34;20204;-56
2021/01/26 08:22:16;;;;;;;16.73;7.65;;;;;;;;;;4178588;34;20097;-54
2021/01/26 08:24:43;;;;;;;12.63;10.98;;;;;;;;;;4178158;34;20142;-48
2021/01/26 08:27:28;;;;;;;13.55;11.20;;;;;;;;;;4204833;34;20082;-50
2021/01/26 08:29:59;;;;;;;14.23;11.65;;;;;;;;;;4203805;34;20121;-57
2021/01/26 08:32:25;;;;;;;14.60;11.12;;;;;;;;;;4191537;34;20176;-58
2021/01/26 08:35:13;;;;;;;14.10;11.52;;;;;;;;;;4203776;34;20134;-58
2021/01/26 08:37:42;;;;;;;15.55;12.23;;;;;;;;;;4204845;34;20186;-53
2021/01/26 08:40:13;;;;;;;13.77;12.02;;;;;;;;;;4207441;34;20105;-51
2021/01/26 08:42:43;;;;;;;16.77;12.77;;;;;;;;;;4195002;34;20125;-51
2021/01/26 08:45:18;;;;;;;14.82;12.40;;;;;;;;;;4208225;34;20205;-54
2021/01/26 08:47:49;;;;;;;17.20;13.07;;;;;;;;;;4205099;34;20090;-51
2021/01/26 08:50:21;;;;;;;16.48;11.95;;;;;;;;;;4190390;34;20098;-54
2021/01/26 08:52:47;;;;;;;14.00;11.60;;;;;;;;;;4179465;34;20098;-54
2021/01/26 08:55:32;;;;;;;11.93;10.73;;;;;;;;;;4188531;34;20110;-59
2021/01/26 08:57:58;;;;;;;14.95;11.52;;;;;;;;;;4188778;34;20204;-58
2021/01/26 09:31:26;;;;;;;12.90;9.88;;;;;;;;;;4343452;28;20177;-57
2021/01/26 09:34:03;;;;;;;13.77;10.93;;;;;;;;;;4180471;34;20102;-57
2021/01/26 09:36:30;;;;;;;13.00;10.70;;;;;;;;;;4179283;34;20202;-56
2021/01/26 09:39:02;;;;;;;16.25;11.20;;;;;;;;;;4185884;34;20141;-58
2021/01/26 09:41:29;;;;;;;15.48;10.90;;;;;;;;;;4204609;34;20121;-57
2021/01/26 09:44:18;;;;;;;15.73;11.40;;;;;;;;;;4204885;34;20113;-57
2021/01/26 09:46:49;;;;;;;14.65;10.43;;;;;;;;;;4204628;34;20241;-58
2021/01/26 09:49:26;;;;;;;13.88;11.00;;;;;;;;;;4178403;34;20125;-58
2021/01/26 09:52:14;;;;;;;12.55;10.27;;;;;;;;;;4178204;34;20186;-58
2021/01/26 09:54:41;;;;;;;14.65;10.95;;;;;;;;;;4168399;34;20517;-57
2021/01/26 09:57:10;;;;;;;15.45;13.02;;;;;;;;;;4190975;34;20206;-58
2021/01/26 09:59:36;;;;;;;11.68;10.48;;;;;;;;;;4190853;34;20134;-58
2021/01/26 10:02:07;;;;;;;11.95;10.73;;;;;;;;;;4167147;34;20130;-58
2021/01/26 10:04:37;;;;;;;11.80;10.15;;;;;;;;;;4177984;34;20181;-58
2021/01/26 10:07:07;;;;;;;13.27;10.48;;;;;;;;;;4167144;34;20104;-57
2021/01/26 10:09:34;;;;;;;10.20;8.75;;;;;;;;;;4167593;34;20691;-58
2021/01/26 10:12:22;;;;;;;12.90;9.30;;;;;;;;;;4190968;34;20151;-58
2021/01/26 10:15:06;;;;;;;13.65;10.68;;;;;;;;;;4190930;34;20124;-60
2021/01/26 10:17:32;;;;;;;10.60;9.50;;;;;;;;;;4175927;34;20174;-55
2021/01/26 10:19:58;;;;;;;11.57;10.30;;;;;;;;;;4189285;34;20134;-57
2021/01/26 10:22:25;;;;;;;11.98;10.60;;;;;;;;;;4177182;34;20601;-57
2021/01/26 10:24:51;;;;;;;12.13;9.73;;;;;;;;;;4190306;34;20157;-57
2021/01/26 10:27:21;;;;;;;10.18;9.10;;;;;;;;;;4190219;34;20114;-58
2021/01/26 10:29:47;;;;;;;10.07;9.07;;;;;;;;;;4175255;34;20118;-58
2021/01/26 10:32:41;;;;;;;11.95;8.48;;;;;;;;;;4169100;34;20109;-58
2021/01/26 10:35:35;;;;;;;9.07;8.00;;;;;;;;;;4187788;34;20110;-60
2021/01/26 10:38:30;;;;;;;13.48;8.05;;;;;;;;;;4163220;34;20127;-63
2021/01/26 10:41:18;;;;;;;9.65;8.00;;;;;;;;;;4166813;34;20098;-63
2021/01/26 10:43:44;;;;;;;9.38;8.00;;;;;;;;;;4177029;34;20120;-64
2021/01/26 10:46:11;;;;;;;11.12;8.43;;;;;;;;;;4176057;34;20145;-62
2021/01/26 10:48:42;;;;;;;15.15;7.97;;;;;;;;;;4164065;34;20091;-61
2021/01/26 10:51:16;;;;;;;8.60;7.72;;;;;;;;;;4164016;34;20099;-59
2021/01/26 10:53:47;;;;;;;10.70;7.95;;;;;;;;;;4177641;34;20113;-57
2021/01/26 10:56:13;;;;;;;9.88;7.53;;;;;;;;;;4166169;34;20130;-59
2021/01/26 10:58:42;;;;;;;8.50;7.60;;;;;;;;;;4178787;34;20114;-58
2021/01/26 11:01:09;;;;;;;9.57;8.60;;;;;;;;;;4178689;34;20202;-58
2021/01/26 11:03:35;;;;;;;10.27;9.10;;;;;;;;;;4154386;34;20280;-60
2021/01/26 11:06:01;;;;;;;11.95;9.32;;;;;;;;;;4177784;34;20538;-61
2021/01/26 11:08:27;;;;;;;11.15;9.60;;;;;;;;;;4178772;34;20432;-61
2021/01/26 11:10:53;;;;;;;13.30;10.13;;;;;;;;;;4178369;34;20190;-58
2021/01/26 11:13:19;;;;;;;12.50;9.65;;;;;;;;;;4178541;34;20206;-57
2021/01/26 11:15:44;;;;;;;11.07;9.98;;;;;;;;;;4178434;34;20280;-58
2021/01/26 11:18:10;;;;;;;11.27;10.07;;;;;;;;;;4187824;34;20113;-58
2021/01/26 11:20:36;;;;;;;10.55;9.45;;;;;;;;;;4189664;34;20118;-58
2021/01/26 11:23:02;;;;;;;11.60;9.07;;;;;;;;;;4178449;34;20122;-60
2021/01/26 11:25:29;;;;;;;14.15;9.65;;;;;;;;;;4178491;34;20506;-60
2021/01/26 11:27:55;;;;;;;10.73;9.38;;;;;;;;;;4178628;34;20110;-59
2021/01/26 11:30:21;;;;;;;10.70;9.27;;;;;;;;;;4182270;34;20234;-60
2021/01/26 11:32:47;;;;;;;9.50;7.93;;;;;;;;;;4192051;34;20466;-58
2021/01/26 11:35:15;;;;;;;12.15;8.45;;;;;;;;;;4192029;34;20152;-60
2021/01/26 11:37:41;;;;;;;10.70;9.52;;;;;;;;;;4191755;34;20121;-60
2021/01/26 11:40:07;;;;;;;11.77;9.13;;;;;;;;;;4191730;34;20157;-61
2021/01/26 11:42:34;;;;;;;9.95;8.60;;;;;;;;;;4191857;34;20101;-58
2021/01/26 11:45:00;;;;;;;11.85;7.90;;;;;;;;;;4192078;34;20134;-58
2021/01/26 11:47:26;;;;;;;8.93;8.00;;;;;;;;;;4192185;34;20129;-59
2021/01/26 11:49:51;;;;;;;9.55;8.15;;;;;;;;;;4191863;34;20102;-60
2021/01/26 11:52:17;;;;;;;9.07;7.55;;;;;;;;;;4195174;34;20510;-59
2021/01/26 11:54:44;;;;;;;10.52;7.60;;;;;;;;;;4190459;34;20555;-59
2021/01/26 11:57:10;;;;;;;8.05;7.25;;;;;;;;;;4190483;34;20106;-60
2021/01/26 11:59:36;;;;;;;8.18;7.32;;;;;;;;;;4190627;34;20552;-60
2021/01/26 12:02:02;;;;;;;9.25;7.50;;;;;;;;;;4176705;34;20129;-60
2021/01/26 12:04:28;;;;;;;9.65;7.20;;;;;;;;;;4190631;34;20138;-60
2021/01/26 12:06:54;;;;;;;8.48;7.12;;;;;;;;;;4176234;34;20141;-60
2021/01/26 12:09:20;;;;;;;8.30;7.40;;;;;;;;;;4190256;34;20222;-60
2021/01/26 12:11:46;;;;;;;8.25;6.80;;;;;;;;;;4190163;34;20118;-59
2021/01/26 12:14:12;;;;;;;7.50;6.80;;;;;;;;;;4190476;34;20121;-61
2021/01/26 12:16:38;;;;;;;8.40;7.53;;;;;;;;;;4190362;34;20217;-59
2021/01/26 12:19:04;;;;;;;13.05;7.03;;;;;;;;;;4177797;34;20126;-60
2021/01/26 12:21:29;;;;;;;10.45;7.72;;;;;;;;;;4190679;34;20174;-59
2021/01/26 12:23:55;;;;;;;12.35;10.55;;;;;;;;;;4191099;34;20120;-60
2021/01/26 12:26:21;;;;;;;10.02;8.18;;;;;;;;;;4189390;34;20594;-59
2021/01/26 12:28:47;;;;;;;12.07;9.40;;;;;;;;;;4189326;34;20241;-60
2021/01/26 12:31:13;;;;;;;9.63;8.05;;;;;;;;;;4189025;34;20121;-60
2021/01/26 12:33:39;;;;;;;12.20;9.57;;;;;;;;;;4189391;34;20110;-60
2021/01/26 12:36:05;;;;;;;11.25;8.73;;;;;;;;;;4189215;34;20111;-59
2021/01/26 12:38:31;;;;;;;9.73;8.68;;;;;;;;;;4190647;34;20510;-60
2021/01/26 12:40:57;;;;;;;11.07;9.38;;;;;;;;;;4191136;34;20113;-60
2021/01/26 12:43:23;;;;;;;10.85;8.98;;;;;;;;;;4178520;34;20083;-60
2021/01/26 12:45:49;;;;;;;14.68;12.55;;;;;;;;;;4190871;34;20110;-60
2021/01/26 12:48:15;;;;;;;11.98;10.02;;;;;;;;;;4191752;34;20126;-59
2021/01/26 12:50:41;;;;;;;11.50;10.18;;;;;;;;;;4191042;34;20518;-59
2021/01/26 12:53:07;;;;;;;14.43;11.63;;;;;;;;;;4190331;34;20502;-59
2021/01/26 12:55:33;;;;;;;14.73;11.82;;;;;;;;;;4191214;34;20134;-59
2021/01/26 12:58:01;;;;;;;13.57;11.90;;;;;;;;;;4191939;34;20126;-59
2021/01/26 13:00:27;;;;;;;12.27;9.95;;;;;;;;;;4191444;34;20109;-59
2021/01/26 13:02:53;;;;;;;9.75;8.35;;;;;;;;;;4191229;34;20094;-60
2021/01/26 13:05:20;;;;;;;12.27;9.88;;;;;;;;;;4178615;34;20153;-60
2021/01/26 13:07:46;;;;;;;11.07;9.48;;;;;;;;;;4191254;34;20133;-61
2021/01/26 13:10:12;;;;;;;12.40;9.65;;;;;;;;;;4191060;34;20125;-60
2021/01/26 13:12:38;;;;;;;11.52;9.90;;;;;;;;;;4191172;34;20132;-60
2021/01/26 13:15:05;;;;;;;12.60;10.20;;;;;;;;;;4190419;34;20118;-60
2021/01/26 13:17:31;;;;;;;10.70;9.13;;;;;;;;;;4195889;34;20102;-59
2021/01/26 13:19:57;;;;;;;13.23;10.60;;;;;;;;;;4205086;34;20232;-59
2021/01/26 13:22:23;;;;;;;11.45;10.02;;;;;;;;;;4192061;34;20113;-59
2021/01/26 13:24:49;;;;;;;10.50;9.23;;;;;;;;;;4190890;34;20114;-59
2021/01/26 13:27:15;;;;;;;13.50;10.15;;;;;;;;;;4190833;34;20229;-60
2021/01/26 13:29:41;;;;;;;13.98;11.32;;;;;;;;;;4191139;34;20473;-59
2021/01/26 13:32:08;;;;;;;12.52;10.55;;;;;;;;;;4190536;34;20186;-59
2021/01/26 13:34:34;;;;;;;12.90;9.80;;;;;;;;;;4191011;34;20126;-59
2021/01/26 13:37:00;;;;;;;11.43;9.45;;;;;;;;;;4190830;34;20274;-59
2021/01/26 13:39:26;;;;;;;12.25;10.32;;;;;;;;;;4190744;34;20125;-59
2021/01/26 13:41:55;;;;;;;11.75;10.50;;;;;;;;;;4190538;34;20451;-59
2021/01/26 13:44:21;;;;;;;12.00;10.50;;;;;;;;;;4190864;34;20531;-59
2021/01/26 13:46:47;;;;;;;12.25;10.82;;;;;;;;;;4190474;34;20170;-59
2021/01/26 13:49:13;;;;;;;11.10;10.00;;;;;;;;;;4190533;34;20110;-58
2021/01/26 13:51:39;;;;;;;12.35;10.80;;;;;;;;;;4189945;34;20214;-59
2021/01/26 13:54:05;;;;;;;12.50;11.10;;;;;;;;;;4189956;34;20133;-58
2021/01/26 13:56:31;;;;;;;12.05;10.85;;;;;;;;;;4190449;34;20538;-59
2021/01/26 13:58:57;;;;;;;13.20;10.80;;;;;;;;;;4190803;34;20132;-59
2021/01/26 14:01:23;;;;;;;12.20;11.00;;;;;;;;;;4190128;34;20114;-59
2021/01/26 14:03:49;;;;;;;12.43;11.23;;;;;;;;;;4190406;34;20210;-59
2021/01/26 14:06:16;;;;;;;12.30;10.82;;;;;;;;;;4190731;34;20126;-59
2021/01/26 14:08:42;;;;;;;13.00;10.85;;;;;;;;;;4191033;34;20209;-59
2021/01/26 14:11:08;;;;;;;12.05;10.77;;;;;;;;;;4190480;34;20147;-58
2021/01/26 14:13:34;;;;;;;13.75;11.43;;;;;;;;;;4190630;34;20206;-60
2021/01/26 14:16:00;;;;;;;12.15;10.85;;;;;;;;;;4190462;34;20122;-58
2021/01/26 14:18:26;;;;;;;11.93;10.57;;;;;;;;;;4190283;34;20124;-55
2021/01/26 14:20:52;;;;;;;11.70;10.50;;;;;;;;;;4190333;34;20105;-54
2021/01/26 14:23:18;;;;;;;11.80;10.60;;;;;;;;;;4190630;34;20117;-54
2021/01/26 14:25:44;;;;;;;12.27;11.07;;;;;;;;;;4189775;34;20202;-58
2021/01/26 14:28:10;;;;;;;13.57;11.35;;;;;;;;;;4190130;34;20105;-58
2021/01/26 14:30:36;;;;;;;11.88;10.68;;;;;;;;;;4190083;34;20118;-58
2021/01/26 14:33:03;;;;;;;11.43;10.30;;;;;;;;;;4190262;34;20459;-56
2021/01/26 14:35:31;;;;;;;12.70;11.40;;;;;;;;;;4190450;34;20291;-56
2021/01/26 14:37:57;;;;;;;13.25;10.95;;;;;;;;;;4190511;34;20091;-56
2021/01/26 14:40:23;;;;;;;12.60;10.60;;;;;;;;;;4190154;34;20210;-61
2021/01/26 14:42:49;;;;;;;10.82;9.75;;;;;;;;;;4190322;34;20205;-61
2021/01/26 14:45:15;;;;;;;10.00;8.95;;;;;;;;;;4174846;34;20102;-60
2021/01/26 14:47:41;;;;;;;10.68;9.48;;;;;;;;;;4188744;34;20447;-61
2021/01/26 14:50:09;;;;;;;11.95;9.63;;;;;;;;;;4188432;34;20213;-61
2021/01/26 14:52:35;;;;;;;10.32;9.23;;;;;;;;;;4187595;34;20122;-64
2021/01/26 14:55:01;;;;;;;11.65;10.45;;;;;;;;;;4188310;34;20302;-61
2021/01/26 14:57:27;;;;;;;11.43;10.32;;;;;;;;;;4188523;34;20216;-62
2021/01/26 14:59:53;;;;;;;12.70;9.23;;;;;;;;;;4176366;34;20125;-61
2021/01/26 15:02:18;;;;;;;11.00;9.90;;;;;;;;;;4190077;34;20110;-62
2021/01/26 15:04:44;;;;;;;10.63;9.52;;;;;;;;;;4190158;34;20106;-61
2021/01/26 15:07:10;;;;;;;11.63;10.43;;;;;;;;;;4190184;34;20129;-61
2021/01/26 15:09:36;;;;;;;10.90;9.80;;;;;;;;;;4189972;34;20125;-60
2021/01/26 15:12:02;;;;;;;10.88;9.77;;;;;;;;;;4179599;34;20186;-61
2021/01/26 15:14:28;;;;;;;11.02;9.93;;;;;;;;;;4176022;34;20141;-59
2021/01/26 15:16:54;;;;;;;11.43;10.25;;;;;;;;;;4185722;34;20130;-59
2021/01/26 15:19:20;;;;;;;13.23;10.68;;;;;;;;;;4190031;34;20689;-60
2021/01/26 15:21:46;;;;;;;11.55;9.73;;;;;;;;;;4181073;34;20198;-57
2021/01/26 15:24:20;;;;;;;11.05;9.80;;;;;;;;;;4163003;34;20531;-57
2021/01/26 15:26:48;;;;;;;11.98;10.23;;;;;;;;;;4184814;34;20607;-57